createdAt,value
2022-12-26T00:01:05.640Z,9.00
2022-12-26T00:06:05.069Z,9.48
2022-12-26T00:11:02.416Z,10.48
2022-12-26T00:15:59.897Z,10.32
2022-12-26T00:20:57.586Z,10.13
2022-12-26T00:25:54.724Z,10.73
2022-12-26T00:30:51.986Z,10.80
2022-12-26T00:35:49.434Z,9.50
2022-12-26T00:40:46.730Z,8.60
2022-12-26T00:45:48.943Z,8.95
2022-12-26T00:50:46.182Z,8.75
2022-12-26T00:55:44.456Z,9.25
2022-12-26T01:00:42.021Z,7.70
2022-12-26T01:05:50.539Z,9.13
2022-12-26T01:10:48.436Z,8.88
2022-12-26T01:15:50.991Z,9.05
2022-12-26T01:20:49.313Z,9.32
2022-12-26T01:26:18.299Z,8.13
2022-12-26T01:31:05.396Z,8.23
2022-12-26T01:36:02.671Z,9.88
2022-12-26T01:41:20.458Z,9.70
2022-12-26T01:46:21.579Z,8.90
2022-12-26T01:51:20.971Z,8.43
2022-12-26T01:56:29.823Z,9.40
2022-12-26T02:01:31.872Z,8.30
2022-12-26T02:06:29.908Z,7.93
2022-12-26T02:11:33.526Z,8.93
2022-12-26T02:16:31.194Z,8.27
2022-12-26T02:21:56.454Z,9.70
2022-12-26T02:26:57.691Z,9.15
2022-12-26T02:32:06.893Z,8.80
2022-12-26T02:37:31.430Z,7.83
2022-12-26T02:43:06.361Z,7.47
2022-12-26T02:48:16.642Z,7.22
2022-12-26T02:53:46.894Z,7.30
2022-12-26T02:59:55.537Z,8.02
2022-12-26T03:05:13.793Z,9.50
2022-12-26T03:10:41.345Z,6.82
2022-12-26T03:16:10.976Z,8.27
2022-12-26T03:21:09.667Z,7.15
2022-12-26T03:26:31.313Z,8.00
2022-12-26T03:31:28.696Z,7.05
2022-12-26T03:36:54.455Z,8.20
2022-12-26T03:42:32.656Z,7.38
2022-12-26T03:48:05.647Z,7.78
2022-12-26T03:53:29.331Z,8.73
2022-12-26T03:59:08.786Z,7.63
2022-12-26T04:04:28.587Z,9.55
2022-12-26T04:09:51.750Z,8.50
2022-12-26T04:15:14.153Z,7.85
2022-12-26T04:20:24.993Z,8.05
2022-12-26T04:25:49.626Z,7.80
2022-12-26T04:31:15.218Z,7.13
2022-12-26T04:36:45.539Z,7.90
2022-12-26T04:42:04.583Z,8.68
2022-12-26T04:47:02.619Z,8.10
2022-12-26T04:52:01.824Z,7.40
2022-12-26T04:57:00.273Z,9.57
2022-12-26T05:02:36.818Z,9.13
2022-12-26T05:07:56.252Z,7.35
2022-12-26T05:12:55.242Z,8.98
2022-12-26T05:18:11.214Z,10.45
2022-12-26T05:24:04.881Z,7.80
2022-12-26T05:29:04.068Z,8.32
2022-12-26T05:34:07.886Z,8.57
2022-12-26T05:39:06.674Z,8.38
2022-12-26T05:44:05.189Z,9.63
2022-12-26T05:49:03.156Z,8.88
2022-12-26T05:54:01.099Z,9.02
2022-12-26T05:59:00.509Z,9.55
2022-12-26T06:03:59.596Z,9.93
2022-12-26T06:08:57.872Z,8.53
2022-12-26T06:13:56.113Z,8.27
2022-12-26T06:18:55.144Z,7.90
2022-12-26T06:23:52.533Z,7.20
2022-12-26T06:28:49.843Z,8.43
2022-12-26T06:33:49.388Z,7.35
2022-12-26T06:38:46.762Z,8.50
2022-12-26T06:43:44.877Z,7.93
2022-12-26T06:48:42.548Z,7.40
2022-12-26T06:53:40.028Z,7.30
2022-12-26T06:58:37.501Z,6.75
2022-12-26T07:03:35.485Z,8.57
2022-12-26T07:08:34.551Z,6.90
2022-12-26T07:13:31.986Z,8.13
2022-12-26T07:18:29.396Z,7.70
2022-12-26T07:23:26.709Z,9.68
2022-12-26T07:28:23.860Z,9.40
2022-12-26T07:33:21.741Z,8.85
2022-12-26T07:38:19.161Z,9.60
2022-12-26T07:43:16.306Z,9.00
2022-12-26T07:48:13.541Z,8.65
2022-12-26T07:53:10.816Z,8.30
2022-12-26T07:58:08.130Z,9.15
2022-12-26T08:03:07.973Z,8.32
2022-12-26T08:08:05.749Z,9.50
2022-12-26T08:13:03.335Z,8.77
2022-12-26T08:18:00.653Z,8.90
2022-12-26T08:27:55.394Z,8.63
2022-12-26T08:32:52.847Z,9.35
2022-12-26T08:37:50.172Z,9.27
2022-12-26T08:43:11.910Z,8.48
2022-12-26T08:48:04.828Z,9.35
2022-12-26T08:53:02.092Z,11.57
2022-12-26T08:57:59.471Z,8.82
2022-12-26T09:02:56.917Z,9.07
2022-12-26T09:07:54.227Z,9.40
2022-12-26T09:12:51.451Z,8.80
2022-12-26T09:17:48.859Z,7.80
2022-12-26T09:22:52.302Z,8.18
2022-12-26T09:27:55.566Z,8.35
2022-12-26T09:32:56.430Z,7.47
2022-12-26T09:37:53.678Z,7.63
2022-12-26T09:43:28.890Z,7.57
2022-12-26T09:48:38.366Z,8.32
2022-12-26T09:53:39.431Z,7.47
2022-12-26T09:58:51.361Z,7.13
2022-12-26T10:03:52.661Z,6.82
2022-12-26T10:09:01.605Z,6.97
2022-12-26T10:14:25.264Z,6.43
2022-12-26T10:19:34.944Z,6.72
2022-12-26T10:24:37.479Z,6.50
2022-12-26T10:29:40.692Z,7.35
2022-12-26T10:34:43.182Z,6.65
2022-12-26T10:40:10.742Z,8.02
2022-12-26T10:45:39.721Z,9.23
2022-12-26T10:50:37.030Z,10.75
2022-12-26T10:55:35.970Z,10.45
2022-12-26T11:00:34.992Z,10.90
2022-12-26T11:11:22.287Z,9.45
2022-12-26T11:16:32.543Z,8.65
2022-12-26T11:21:32.370Z,8.98
2022-12-26T11:26:30.156Z,9.93
2022-12-26T11:31:32.398Z,9.77
2022-12-26T11:36:30.659Z,9.65
2022-12-26T11:41:33.855Z,9.07
2022-12-26T11:46:45.939Z,9.68
2022-12-26T11:51:47.485Z,9.63
2022-12-26T11:56:44.803Z,8.63
2022-12-26T12:01:42.345Z,9.25
2022-12-26T12:06:54.754Z,9.68
2022-12-26T12:11:58.075Z,9.90
2022-12-26T12:17:14.550Z,8.68
2022-12-26T12:22:14.842Z,8.55
2022-12-26T12:27:42.846Z,7.68
2022-12-26T12:33:01.263Z,6.60
2022-12-26T12:38:17.242Z,6.57
2022-12-26T12:43:27.743Z,6.53
2022-12-26T12:48:54.221Z,7.72
2022-12-26T12:54:13.117Z,7.40
2022-12-26T12:59:38.361Z,7.80
2022-12-26T13:04:42.107Z,7.70
2022-12-26T13:10:01.970Z,9.27
2022-12-26T13:15:08.412Z,8.50
2022-12-26T13:20:23.886Z,8.60
2022-12-26T13:25:25.625Z,7.47
2022-12-26T13:30:23.166Z,7.78
2022-12-26T13:35:53.786Z,8.07
2022-12-26T13:41:20.831Z,8.82
2022-12-26T13:46:36.535Z,7.32
2022-12-26T13:51:44.425Z,6.85
2022-12-26T13:56:45.829Z,7.60
2022-12-26T14:02:11.119Z,7.80
2022-12-26T14:07:33.384Z,10.82
2022-12-26T14:12:34.672Z,15.57
2022-12-26T14:18:03.441Z,12.60
2022-12-26T14:23:16.927Z,12.05
2022-12-26T14:28:52.565Z,11.90
2022-12-26T14:34:10.703Z,11.20
2022-12-26T14:39:42.968Z,10.57
2022-12-26T14:44:43.934Z,9.90
2022-12-26T14:49:42.442Z,10.02
2022-12-26T14:54:43.158Z,11.50
2022-12-26T15:00:21.448Z,12.02
2022-12-26T15:05:26.473Z,11.18
2022-12-26T15:10:54.592Z,10.35
2022-12-26T15:16:13.199Z,10.73
2022-12-26T15:21:34.495Z,10.02
2022-12-26T15:26:52.148Z,11.20
2022-12-26T15:32:04.434Z,12.40
2022-12-26T15:37:23.523Z,12.57
2022-12-26T15:42:48.073Z,12.73
2022-12-26T15:48:06.939Z,13.95
2022-12-26T15:53:11.105Z,13.82
2022-12-26T15:58:44.985Z,14.02
2022-12-26T16:03:54.450Z,14.98
2022-12-26T16:09:18.549Z,16.33
2022-12-26T16:14:34.781Z,17.40
2022-12-26T16:19:32.285Z,18.52
2022-12-26T16:24:29.631Z,17.25
2022-12-26T16:29:27.010Z,19.90
2022-12-26T16:34:25.270Z,17.88
2022-12-26T16:39:23.778Z,16.50
2022-12-26T16:44:30.867Z,16.00
2022-12-26T16:49:31.044Z,21.85
2022-12-26T16:59:38.487Z,25.80
2022-12-26T17:04:35.959Z,22.95
2022-12-26T17:09:44.349Z,18.65
2022-12-26T17:14:47.904Z,15.00
2022-12-26T17:19:49.065Z,15.27
2022-12-26T17:24:51.782Z,13.02
2022-12-26T17:30:00.852Z,13.90
2022-12-26T17:35:07.235Z,13.10
2022-12-26T17:40:16.843Z,13.20
2022-12-26T17:45:26.127Z,13.17
2022-12-26T17:50:38.533Z,18.52
2022-12-26T17:55:36.051Z,12.90
2022-12-26T18:00:33.533Z,11.90
2022-12-26T18:05:31.208Z,13.95
2022-12-26T18:10:32.031Z,15.05
2022-12-26T18:15:30.913Z,13.18
2022-12-26T18:20:29.837Z,13.13
2022-12-26T18:25:28.034Z,11.68
2022-12-26T18:30:26.059Z,12.40
2022-12-26T18:35:23.348Z,11.65
2022-12-26T18:40:43.542Z,12.68
2022-12-26T18:45:41.775Z,13.77
2022-12-26T18:50:39.071Z,15.10
2022-12-26T18:55:36.506Z,14.77
2022-12-26T19:00:34.328Z,15.57
2022-12-26T19:05:34.057Z,13.02
2022-12-26T19:10:34.573Z,12.70
2022-12-26T19:15:33.946Z,10.65
2022-12-26T19:20:31.563Z,14.77
2022-12-26T19:25:29.072Z,16.05
2022-12-26T19:30:26.429Z,11.68
2022-12-26T19:35:26.618Z,10.95
2022-12-26T19:40:25.339Z,10.82
2022-12-26T19:45:22.911Z,10.13
2022-12-26T19:50:20.357Z,10.00
2022-12-26T19:55:17.784Z,8.88
2022-12-26T20:00:15.144Z,11.52
2022-12-26T20:05:12.546Z,10.52
2022-12-26T20:10:10.092Z,10.65
2022-12-26T20:15:07.837Z,13.23
2022-12-26T20:20:05.803Z,11.32
2022-12-26T20:25:03.137Z,8.38
2022-12-26T20:30:00.572Z,8.50
2022-12-26T20:34:58.281Z,7.82
2022-12-26T20:39:59.287Z,7.43
2022-12-26T20:44:56.511Z,7.28
2022-12-26T20:49:53.780Z,8.43
2022-12-26T20:54:51.242Z,9.40
2022-12-26T20:59:48.746Z,8.45
2022-12-26T21:04:46.246Z,9.70
2022-12-26T21:09:46.506Z,9.45
2022-12-26T21:14:44.238Z,9.18
2022-12-26T21:19:41.658Z,7.70
2022-12-26T21:24:42.043Z,7.38
2022-12-26T21:29:40.347Z,7.80
2022-12-26T21:34:39.104Z,8.30
2022-12-26T21:39:37.527Z,8.18
2022-12-26T21:44:35.999Z,8.10
2022-12-26T21:49:33.882Z,8.45
2022-12-26T21:54:49.684Z,8.77
2022-12-26T21:59:56.389Z,7.93
2022-12-26T22:04:53.798Z,8.93
2022-12-26T22:09:51.044Z,9.65
2022-12-26T22:14:48.285Z,9.25
2022-12-26T22:19:45.518Z,9.70
2022-12-26T22:24:42.885Z,7.82
2022-12-26T22:29:40.067Z,8.73
2022-12-26T22:34:37.671Z,8.40
2022-12-26T22:39:35.008Z,8.50
2022-12-26T22:44:32.186Z,9.18
2022-12-26T22:49:29.697Z,9.27
2022-12-26T22:54:26.997Z,8.93
2022-12-26T22:59:58.017Z,9.35
2022-12-26T23:04:41.655Z,10.13
2022-12-26T23:09:39.414Z,10.10
2022-12-26T23:14:37.817Z,10.13
2022-12-26T23:20:07.036Z,8.48
2022-12-26T23:25:04.430Z,7.10
2022-12-26T23:30:19.881Z,7.35
2022-12-26T23:35:18.435Z,6.80
2022-12-26T23:40:17.287Z,7.97
2022-12-26T23:45:15.883Z,7.32
2022-12-26T23:50:14.949Z,7.70
2022-12-26T23:55:12.525Z,7.72
